sensor_id;sensor_type;location;lat;lon;timestamp;temperature;humidity
3562;DHT22;1795;52.074;4.754;2023-02-28T00:01:33;2.40;99.90
3562;DHT22;1795;52.074;4.754;2023-02-28T00:04:02;2.40;99.90
3562;DHT22;1795;52.074;4.754;2023-02-28T00:06:30;2.40;99.90
3562;DHT22;1795;52.074;4.754;2023-02-28T00:08:59;2.40;99.90
3562;DHT22;1795;52.074;4.754;2023-02-28T00:11:27;2.40;99.90
3562;DHT22;1795;52.074;4.754;2023-02-28T00:13:56;2.40;99.90
3562;DHT22;1795;52.074;4.754;2023-02-28T00:16:24;2.40;99.90
3562;DHT22;1795;52.074;4.754;2023-02-28T00:18:52;2.40;99.90
3562;DHT22;1795;52.074;4.754;2023-02-28T00:21:20;2.40;99.90
3562;DHT22;1795;52.074;4.754;2023-02-28T00:23:48;2.40;99.90
3562;DHT22;1795;52.074;4.754;2023-02-28T00:26:18;2.40;99.90
3562;DHT22;1795;52.074;4.754;2023-02-28T00:28:47;2.40;99.90
3562;DHT22;1795;52.074;4.754;2023-02-28T00:31:16;2.40;99.90
3562;DHT22;1795;52.074;4.754;2023-02-28T00:33:44;2.40;99.90
3562;DHT22;1795;52.074;4.754;2023-02-28T00:36:12;2.50;99.90
3562;DHT22;1795;52.074;4.754;2023-02-28T00:38:41;2.50;99.90
3562;DHT22;1795;52.074;4.754;2023-02-28T00:41:09;2.50;99.90
3562;DHT22;1795;52.074;4.754;2023-02-28T00:43:39;2.50;99.90
3562;DHT22;1795;52.074;4.754;2023-02-28T00:46:07;2.50;99.90
3562;DHT22;1795;52.074;4.754;2023-02-28T00:48:36;2.50;99.90
3562;DHT22;1795;52.074;4.754;2023-02-28T00:51:05;2.50;99.90
3562;DHT22;1795;52.074;4.754;2023-02-28T00:53:33;2.50;99.90
3562;DHT22;1795;52.074;4.754;2023-02-28T00:56:02;2.50;99.90
3562;DHT22;1795;52.074;4.754;2023-02-28T00:58:31;2.60;99.90
3562;DHT22;1795;52.074;4.754;2023-02-28T01:01:00;2.60;99.90
3562;DHT22;1795;52.074;4.754;2023-02-28T01:03:28;2.60;99.90
3562;DHT22;1795;52.074;4.754;2023-02-28T01:05:57;2.60;99.90
3562;DHT22;1795;52.074;4.754;2023-02-28T01:08:25;2.60;99.90
3562;DHT22;1795;52.074;4.754;2023-02-28T01:10:53;2.60;99.90
3562;DHT22;1795;52.074;4.754;2023-02-28T01:13:21;2.60;99.90
3562;DHT22;1795;52.074;4.754;2023-02-28T01:15:51;2.60;99.90
3562;DHT22;1795;52.074;4.754;2023-02-28T01:18:22;2.60;99.90
3562;DHT22;1795;52.074;4.754;2023-02-28T01:20:51;2.60;99.90
3562;DHT22;1795;52.074;4.754;2023-02-28T01:23:19;2.70;99.90
3562;DHT22;1795;52.074;4.754;2023-02-28T01:25:48;2.70;99.90
3562;DHT22;1795;52.074;4.754;2023-02-28T01:28:16;2.70;99.90
3562;DHT22;1795;52.074;4.754;2023-02-28T01:30:47;2.70;99.90
3562;DHT22;1795;52.074;4.754;2023-02-28T01:33:16;2.70;99.90
3562;DHT22;1795;52.074;4.754;2023-02-28T01:35:45;2.70;99.90
3562;DHT22;1795;52.074;4.754;2023-02-28T01:38:13;2.70;99.90
3562;DHT22;1795;52.074;4.754;2023-02-28T01:40:48;2.70;99.90
3562;DHT22;1795;52.074;4.754;2023-02-28T01:43:21;2.70;99.90
3562;DHT22;1795;52.074;4.754;2023-02-28T01:45:51;2.70;99.90
3562;DHT22;1795;52.074;4.754;2023-02-28T01:48:21;2.80;99.90
3562;DHT22;1795;52.074;4.754;2023-02-28T01:50:52;2.80;99.90
3562;DHT22;1795;52.074;4.754;2023-02-28T01:53:24;2.80;99.90
3562;DHT22;1795;52.074;4.754;2023-02-28T01:55:54;2.80;99.90
3562;DHT22;1795;52.074;4.754;2023-02-28T01:58:23;2.80;99.90
3562;DHT22;1795;52.074;4.754;2023-02-28T02:00:51;2.80;99.90
3562;DHT22;1795;52.074;4.754;2023-02-28T02:03:19;2.80;99.90
3562;DHT22;1795;52.074;4.754;2023-02-28T02:05:48;2.80;99.90
3562;DHT22;1795;52.074;4.754;2023-02-28T02:08:19;2.80;99.90
3562;DHT22;1795;52.074;4.754;2023-02-28T02:10:50;2.80;99.90
3562;DHT22;1795;52.074;4.754;2023-02-28T02:13:29;2.80;99.90
3562;DHT22;1795;52.074;4.754;2023-02-28T02:16:10;2.80;99.90
3562;DHT22;1795;52.074;4.754;2023-02-28T02:18:44;2.80;99.90
3562;DHT22;1795;52.074;4.754;2023-02-28T02:21:38;2.90;99.90
3562;DHT22;1795;52.074;4.754;2023-02-28T02:24:40;2.90;99.90
3562;DHT22;1795;52.074;4.754;2023-02-28T02:36:27;2.90;99.90
3562;DHT22;1795;52.074;4.754;2023-02-28T02:39:04;2.90;99.90
3562;DHT22;1795;52.074;4.754;2023-02-28T02:41:37;2.90;99.90
3562;DHT22;1795;52.074;4.754;2023-02-28T02:44:11;2.90;99.90
3562;DHT22;1795;52.074;4.754;2023-02-28T02:46:42;2.90;99.90
3562;DHT22;1795;52.074;4.754;2023-02-28T02:49:15;2.90;99.90
3562;DHT22;1795;52.074;4.754;2023-02-28T02:51:46;3.00;99.90
3562;DHT22;1795;52.074;4.754;2023-02-28T02:54:19;3.00;99.90
3562;DHT22;1795;52.074;4.754;2023-02-28T02:56:49;3.00;99.90
3562;DHT22;1795;52.074;4.754;2023-02-28T02:59:20;3.00;99.90
3562;DHT22;1795;52.074;4.754;2023-02-28T03:01:52;3.00;99.90
3562;DHT22;1795;52.074;4.754;2023-02-28T03:04:22;3.00;99.90
3562;DHT22;1795;52.074;4.754;2023-02-28T03:06:52;3.00;99.90
3562;DHT22;1795;52.074;4.754;2023-02-28T03:09:21;3.00;99.90
3562;DHT22;1795;52.074;4.754;2023-02-28T03:11:51;3.00;99.90
3562;DHT22;1795;52.074;4.754;2023-02-28T03:14:30;3.00;99.90
3562;DHT22;1795;52.074;4.754;2023-02-28T03:17:24;3.00;99.90
3562;DHT22;1795;52.074;4.754;2023-02-28T03:20:03;3.00;99.90
3562;DHT22;1795;52.074;4.754;2023-02-28T03:22:51;3.00;99.90
3562;DHT22;1795;52.074;4.754;2023-02-28T03:25:29;3.00;99.90
3562;DHT22;1795;52.074;4.754;2023-02-28T03:28:07;3.10;99.90
3562;DHT22;1795;52.074;4.754;2023-02-28T03:30:42;3.10;99.90
3562;DHT22;1795;52.074;4.754;2023-02-28T03:33:16;3.10;99.90
3562;DHT22;1795;52.074;4.754;2023-02-28T03:35:48;3.10;99.90
3562;DHT22;1795;52.074;4.754;2023-02-28T03:38:22;3.10;99.90
3562;DHT22;1795;52.074;4.754;2023-02-28T03:40:57;3.10;99.90
3562;DHT22;1795;52.074;4.754;2023-02-28T03:43:30;3.10;99.90
3562;DHT22;1795;52.074;4.754;2023-02-28T03:46:03;3.10;99.90
3562;DHT22;1795;52.074;4.754;2023-02-28T03:48:38;3.10;99.90
3562;DHT22;1795;52.074;4.754;2023-02-28T03:51:10;3.10;99.90
3562;DHT22;1795;52.074;4.754;2023-02-28T03:53:44;3.10;99.90
3562;DHT22;1795;52.074;4.754;2023-02-28T03:56:16;3.10;99.90
3562;DHT22;1795;52.074;4.754;2023-02-28T03:58:51;3.10;99.90
3562;DHT22;1795;52.074;4.754;2023-02-28T04:01:25;3.10;99.90
3562;DHT22;1795;52.074;4.754;2023-02-28T04:03:55;3.10;99.90
3562;DHT22;1795;52.074;4.754;2023-02-28T04:06:24;3.10;99.90
3562;DHT22;1795;52.074;4.754;2023-02-28T04:08:53;3.10;99.90
3562;DHT22;1795;52.074;4.754;2023-02-28T04:11:24;3.20;99.90
3562;DHT22;1795;52.074;4.754;2023-02-28T04:13:56;3.20;99.90
3562;DHT22;1795;52.074;4.754;2023-02-28T04:16:23;3.20;99.90
3562;DHT22;1795;52.074;4.754;2023-02-28T04:19:02;3.20;99.90
3562;DHT22;1795;52.074;4.754;2023-02-28T04:21:33;3.20;99.90
3562;DHT22;1795;52.074;4.754;2023-02-28T04:24:03;3.20;99.90
3562;DHT22;1795;52.074;4.754;2023-02-28T04:26:31;3.20;99.90
3562;DHT22;1795;52.074;4.754;2023-02-28T04:29:03;3.20;99.90
3562;DHT22;1795;52.074;4.754;2023-02-28T04:31:32;3.20;99.90
3562;DHT22;1795;52.074;4.754;2023-02-28T04:34:00;3.20;99.90
3562;DHT22;1795;52.074;4.754;2023-02-28T04:36:28;3.20;99.90
3562;DHT22;1795;52.074;4.754;2023-02-28T04:38:56;3.20;99.90
3562;DHT22;1795;52.074;4.754;2023-02-28T04:41:26;3.20;99.90
3562;DHT22;1795;52.074;4.754;2023-02-28T04:43:58;3.20;99.90
3562;DHT22;1795;52.074;4.754;2023-02-28T04:46:26;3.20;99.90
3562;DHT22;1795;52.074;4.754;2023-02-28T04:48:54;3.20;99.90
3562;DHT22;1795;52.074;4.754;2023-02-28T04:51:22;3.20;99.90
3562;DHT22;1795;52.074;4.754;2023-02-28T04:53:50;3.30;99.90
3562;DHT22;1795;52.074;4.754;2023-02-28T04:56:19;3.30;99.90
3562;DHT22;1795;52.074;4.754;2023-02-28T04:58:49;3.30;99.90
3562;DHT22;1795;52.074;4.754;2023-02-28T05:01:22;3.30;99.90
3562;DHT22;1795;52.074;4.754;2023-02-28T05:03:52;3.30;99.90
3562;DHT22;1795;52.074;4.754;2023-02-28T05:06:21;3.30;99.90
3562;DHT22;1795;52.074;4.754;2023-02-28T05:08:51;3.30;99.90
3562;DHT22;1795;52.074;4.754;2023-02-28T05:11:21;3.30;99.90
3562;DHT22;1795;52.074;4.754;2023-02-28T05:13:52;3.30;99.90
3562;DHT22;1795;52.074;4.754;2023-02-28T05:16:20;3.30;99.90
3562;DHT22;1795;52.074;4.754;2023-02-28T05:18:48;3.30;99.90
3562;DHT22;1795;52.074;4.754;2023-02-28T05:21:25;3.30;99.90
3562;DHT22;1795;52.074;4.754;2023-02-28T05:23:55;3.30;99.90
3562;DHT22;1795;52.074;4.754;2023-02-28T05:26:25;3.30;99.90
3562;DHT22;1795;52.074;4.754;2023-02-28T05:28:55;3.30;99.90
3562;DHT22;1795;52.074;4.754;2023-02-28T05:31:23;3.30;99.90
3562;DHT22;1795;52.074;4.754;2023-02-28T05:33:51;3.30;99.90
3562;DHT22;1795;52.074;4.754;2023-02-28T05:36:21;3.30;99.90
3562;DHT22;1795;52.074;4.754;2023-02-28T05:38:50;3.30;99.90
3562;DHT22;1795;52.074;4.754;2023-02-28T05:41:19;3.30;99.90
3562;DHT22;1795;52.074;4.754;2023-02-28T05:43:48;3.30;99.90
3562;DHT22;1795;52.074;4.754;2023-02-28T05:46:17;3.30;99.90
3562;DHT22;1795;52.074;4.754;2023-02-28T05:48:47;3.30;99.90
3562;DHT22;1795;52.074;4.754;2023-02-28T05:51:15;3.30;99.90
3562;DHT22;1795;52.074;4.754;2023-02-28T05:53:44;3.30;99.90
3562;DHT22;1795;52.074;4.754;2023-02-28T05:56:12;3.30;99.90
3562;DHT22;1795;52.074;4.754;2023-02-28T05:58:40;3.30;99.90
3562;DHT22;1795;52.074;4.754;2023-02-28T06:01:24;3.30;99.90
3562;DHT22;1795;52.074;4.754;2023-02-28T06:03:53;3.30;99.90
3562;DHT22;1795;52.074;4.754;2023-02-28T06:06:21;3.30;99.90
3562;DHT22;1795;52.074;4.754;2023-02-28T06:08:49;3.30;99.90
3562;DHT22;1795;52.074;4.754;2023-02-28T06:11:17;3.30;99.90
3562;DHT22;1795;52.074;4.754;2023-02-28T06:13:47;3.30;99.90
3562;DHT22;1795;52.074;4.754;2023-02-28T06:16:15;3.30;99.90
3562;DHT22;1795;52.074;4.754;2023-02-28T06:18:44;3.30;99.90
3562;DHT22;1795;52.074;4.754;2023-02-28T06:21:13;3.30;99.90
3562;DHT22;1795;52.074;4.754;2023-02-28T06:23:41;3.30;99.90
3562;DHT22;1795;52.074;4.754;2023-02-28T06:26:10;3.30;99.90
3562;DHT22;1795;52.074;4.754;2023-02-28T06:28:39;3.30;99.90
3562;DHT22;1795;52.074;4.754;2023-02-28T06:31:08;3.30;99.90
3562;DHT22;1795;52.074;4.754;2023-02-28T06:33:37;3.20;99.90
3562;DHT22;1795;52.074;4.754;2023-02-28T06:36:08;3.20;99.90
3562;DHT22;1795;52.074;4.754;2023-02-28T06:38:37;3.20;99.90
3562;DHT22;1795;52.074;4.754;2023-02-28T06:41:05;3.20;99.90
3562;DHT22;1795;52.074;4.754;2023-02-28T06:43:36;3.20;99.90
3562;DHT22;1795;52.074;4.754;2023-02-28T06:46:07;3.20;99.90
3562;DHT22;1795;52.074;4.754;2023-02-28T06:48:36;3.20;99.90
3562;DHT22;1795;52.074;4.754;2023-02-28T06:51:07;3.20;99.90
3562;DHT22;1795;52.074;4.754;2023-02-28T06:53:35;3.10;99.90
3562;DHT22;1795;52.074;4.754;2023-02-28T06:56:04;3.10;99.90
3562;DHT22;1795;52.074;4.754;2023-02-28T06:58:33;3.10;99.90
3562;DHT22;1795;52.074;4.754;2023-02-28T07:01:02;3.00;99.90
3562;DHT22;1795;52.074;4.754;2023-02-28T07:03:30;3.00;99.90
3562;DHT22;1795;52.074;4.754;2023-02-28T07:06:00;3.00;99.90
3562;DHT22;1795;52.074;4.754;2023-02-28T07:08:29;2.90;99.90
3562;DHT22;1795;52.074;4.754;2023-02-28T07:10:58;2.90;99.90
3562;DHT22;1795;52.074;4.754;2023-02-28T07:13:26;2.90;99.90
3562;DHT22;1795;52.074;4.754;2023-02-28T07:15:55;2.80;99.90
3562;DHT22;1795;52.074;4.754;2023-02-28T07:18:24;2.80;99.90
3562;DHT22;1795;52.074;4.754;2023-02-28T07:20:52;2.80;99.90
3562;DHT22;1795;52.074;4.754;2023-02-28T07:23:21;2.80;99.90
3562;DHT22;1795;52.074;4.754;2023-02-28T07:25:51;2.80;99.90
3562;DHT22;1795;52.074;4.754;2023-02-28T07:28:19;2.80;99.90
3562;DHT22;1795;52.074;4.754;2023-02-28T07:30:47;2.80;99.90
3562;DHT22;1795;52.074;4.754;2023-02-28T07:33:16;2.80;99.90
3562;DHT22;1795;52.074;4.754;2023-02-28T07:35:44;2.70;99.90
3562;DHT22;1795;52.074;4.754;2023-02-28T07:38:12;2.70;99.90
3562;DHT22;1795;52.074;4.754;2023-02-28T07:40:40;2.70;99.90
3562;DHT22;1795;52.074;4.754;2023-02-28T07:43:10;2.70;99.90
3562;DHT22;1795;52.074;4.754;2023-02-28T07:45:37;2.70;99.90
3562;DHT22;1795;52.074;4.754;2023-02-28T07:48:06;2.70;99.90
3562;DHT22;1795;52.074;4.754;2023-02-28T07:50:36;2.70;99.90
3562;DHT22;1795;52.074;4.754;2023-02-28T07:53:04;2.70;99.90
3562;DHT22;1795;52.074;4.754;2023-02-28T07:55:32;2.70;99.90
3562;DHT22;1795;52.074;4.754;2023-02-28T07:58:00;2.70;99.90
3562;DHT22;1795;52.074;4.754;2023-02-28T08:00:30;2.70;99.90
3562;DHT22;1795;52.074;4.754;2023-02-28T08:02:58;2.70;99.90
3562;DHT22;1795;52.074;4.754;2023-02-28T08:05:26;2.70;99.90
3562;DHT22;1795;52.074;4.754;2023-02-28T08:07:54;2.70;99.90
3562;DHT22;1795;52.074;4.754;2023-02-28T08:10:23;2.70;99.90
3562;DHT22;1795;52.074;4.754;2023-02-28T08:12:51;2.70;99.90
3562;DHT22;1795;52.074;4.754;2023-02-28T08:15:19;2.70;99.90
3562;DHT22;1795;52.074;4.754;2023-02-28T08:17:49;2.70;99.90
3562;DHT22;1795;52.074;4.754;2023-02-28T08:20:17;2.70;99.90
3562;DHT22;1795;52.074;4.754;2023-02-28T08:22:45;2.70;99.90
3562;DHT22;1795;52.074;4.754;2023-02-28T08:25:13;2.60;99.90
3562;DHT22;1795;52.074;4.754;2023-02-28T08:27:41;2.70;99.90
3562;DHT22;1795;52.074;4.754;2023-02-28T08:30:10;2.60;99.90
3562;DHT22;1795;52.074;4.754;2023-02-28T08:32:39;2.70;99.90
3562;DHT22;1795;52.074;4.754;2023-02-28T08:35:09;2.70;99.90
3562;DHT22;1795;52.074;4.754;2023-02-28T08:37:37;2.70;99.90
3562;DHT22;1795;52.074;4.754;2023-02-28T08:40:07;2.70;99.90
3562;DHT22;1795;52.074;4.754;2023-02-28T08:42:36;2.70;99.90
3562;DHT22;1795;52.074;4.754;2023-02-28T08:45:04;2.70;99.90
3562;DHT22;1795;52.074;4.754;2023-02-28T08:47:33;2.70;99.90
3562;DHT22;1795;52.074;4.754;2023-02-28T08:50:01;2.70;99.90
3562;DHT22;1795;52.074;4.754;2023-02-28T08:52:30;2.70;99.90
3562;DHT22;1795;52.074;4.754;2023-02-28T08:54:58;2.70;99.90
3562;DHT22;1795;52.074;4.754;2023-02-28T08:57:26;2.70;99.90
3562;DHT22;1795;52.074;4.754;2023-02-28T08:59:54;2.70;99.90
3562;DHT22;1795;52.074;4.754;2023-02-28T09:02:22;2.70;99.90
3562;DHT22;1795;52.074;4.754;2023-02-28T09:04:50;2.70;99.90
3562;DHT22;1795;52.074;4.754;2023-02-28T09:07:18;2.70;99.90
3562;DHT22;1795;52.074;4.754;2023-02-28T09:09:47;2.70;99.90
3562;DHT22;1795;52.074;4.754;2023-02-28T09:12:22;2.80;99.90
3562;DHT22;1795;52.074;4.754;2023-02-28T09:14:50;2.80;99.90
3562;DHT22;1795;52.074;4.754;2023-02-28T09:17:19;2.80;99.90
3562;DHT22;1795;52.074;4.754;2023-02-28T09:19:47;2.80;99.90
3562;DHT22;1795;52.074;4.754;2023-02-28T09:22:16;2.80;99.90
3562;DHT22;1795;52.074;4.754;2023-02-28T09:24:44;2.80;99.90
3562;DHT22;1795;52.074;4.754;2023-02-28T09:27:13;2.80;99.90
3562;DHT22;1795;52.074;4.754;2023-02-28T09:29:41;2.80;99.90
3562;DHT22;1795;52.074;4.754;2023-02-28T09:32:09;2.90;99.90
3562;DHT22;1795;52.074;4.754;2023-02-28T09:34:37;2.90;99.90
3562;DHT22;1795;52.074;4.754;2023-02-28T09:37:05;2.90;99.90
3562;DHT22;1795;52.074;4.754;2023-02-28T09:39:33;2.90;99.90
3562;DHT22;1795;52.074;4.754;2023-02-28T09:42:03;3.00;99.90
3562;DHT22;1795;52.074;4.754;2023-02-28T09:44:36;3.00;99.90
3562;DHT22;1795;52.074;4.754;2023-02-28T09:47:10;3.00;99.90
3562;DHT22;1795;52.074;4.754;2023-02-28T09:49:43;3.00;99.90
3562;DHT22;1795;52.074;4.754;2023-02-28T09:52:17;3.00;99.90
3562;DHT22;1795;52.074;4.754;2023-02-28T09:54:46;3.00;99.90
3562;DHT22;1795;52.074;4.754;2023-02-28T09:57:19;3.10;99.90
3562;DHT22;1795;52.074;4.754;2023-02-28T10:00:01;3.00;99.90
3562;DHT22;1795;52.074;4.754;2023-02-28T10:02:47;3.10;99.90
3562;DHT22;1795;52.074;4.754;2023-02-28T10:05:19;3.10;99.90
3562;DHT22;1795;52.074;4.754;2023-02-28T10:07:56;3.10;99.90
3562;DHT22;1795;52.074;4.754;2023-02-28T10:10:32;3.20;99.90
3562;DHT22;1795;52.074;4.754;2023-02-28T10:13:05;3.20;99.90
3562;DHT22;1795;52.074;4.754;2023-02-28T10:15:36;3.20;99.90
3562;DHT22;1795;52.074;4.754;2023-02-28T10:18:09;3.20;99.90
3562;DHT22;1795;52.074;4.754;2023-02-28T10:20:40;3.30;99.90
3562;DHT22;1795;52.074;4.754;2023-02-28T10:23:13;3.30;99.90
3562;DHT22;1795;52.074;4.754;2023-02-28T10:25:45;3.30;99.90
3562;DHT22;1795;52.074;4.754;2023-02-28T10:28:15;3.30;99.90
3562;DHT22;1795;52.074;4.754;2023-02-28T10:30:48;3.30;99.90
3562;DHT22;1795;52.074;4.754;2023-02-28T10:33:23;3.40;99.90
3562;DHT22;1795;52.074;4.754;2023-02-28T10:35:51;3.40;99.90
3562;DHT22;1795;52.074;4.754;2023-02-28T10:38:21;3.50;99.90
3562;DHT22;1795;52.074;4.754;2023-02-28T10:40:50;3.50;99.90
3562;DHT22;1795;52.074;4.754;2023-02-28T10:43:21;3.60;99.90
3562;DHT22;1795;52.074;4.754;2023-02-28T10:45:57;3.60;99.90
3562;DHT22;1795;52.074;4.754;2023-02-28T10:48:32;3.60;99.90
3562;DHT22;1795;52.074;4.754;2023-02-28T10:51:01;3.70;99.90
3562;DHT22;1795;52.074;4.754;2023-02-28T10:53:37;3.80;99.90
3562;DHT22;1795;52.074;4.754;2023-02-28T10:56:26;3.80;99.90
3562;DHT22;1795;52.074;4.754;2023-02-28T10:58:56;3.90;99.90
3562;DHT22;1795;52.074;4.754;2023-02-28T11:01:38;3.90;99.90
3562;DHT22;1795;52.074;4.754;2023-02-28T11:04:20;4.00;99.90
3562;DHT22;1795;52.074;4.754;2023-02-28T11:07:04;4.10;99.90
3562;DHT22;1795;52.074;4.754;2023-02-28T11:09:34;4.20;99.90
3562;DHT22;1795;52.074;4.754;2023-02-28T11:12:04;4.30;99.90
3562;DHT22;1795;52.074;4.754;2023-02-28T11:14:36;4.30;99.90
3562;DHT22;1795;52.074;4.754;2023-02-28T11:17:15;4.30;99.90
3562;DHT22;1795;52.074;4.754;2023-02-28T11:19:49;4.40;99.90
3562;DHT22;1795;52.074;4.754;2023-02-28T11:22:20;4.40;99.90
3562;DHT22;1795;52.074;4.754;2023-02-28T11:24:51;4.50;99.90
3562;DHT22;1795;52.074;4.754;2023-02-28T11:30:24;4.60;99.90
3562;DHT22;1795;52.074;4.754;2023-02-28T11:32:53;4.60;99.90
3562;DHT22;1795;52.074;4.754;2023-02-28T11:35:26;4.70;99.90
3562;DHT22;1795;52.074;4.754;2023-02-28T11:37:54;4.70;99.90
3562;DHT22;1795;52.074;4.754;2023-02-28T11:40:30;4.80;99.90
3562;DHT22;1795;52.074;4.754;2023-02-28T11:43:08;4.90;99.90
3562;DHT22;1795;52.074;4.754;2023-02-28T11:45:54;4.90;99.90
3562;DHT22;1795;52.074;4.754;2023-02-28T11:48:29;4.90;99.90
3562;DHT22;1795;52.074;4.754;2023-02-28T11:51:10;5.00;99.90
3562;DHT22;1795;52.074;4.754;2023-02-28T11:53:56;5.00;99.90
3562;DHT22;1795;52.074;4.754;2023-02-28T11:56:32;5.10;99.90
3562;DHT22;1795;52.074;4.754;2023-02-28T11:59:22;5.20;99.90
3562;DHT22;1795;52.074;4.754;2023-02-28T12:02:10;5.20;99.90
3562;DHT22;1795;52.074;4.754;2023-02-28T12:04:54;5.30;99.90
3562;DHT22;1795;52.074;4.754;2023-02-28T12:07:31;5.30;99.90
3562;DHT22;1795;52.074;4.754;2023-02-28T12:10:06;5.40;99.90
3562;DHT22;1795;52.074;4.754;2023-02-28T12:12:50;5.40;99.90
3562;DHT22;1795;52.074;4.754;2023-02-28T12:15:49;5.50;99.90
3562;DHT22;1795;52.074;4.754;2023-02-28T12:18:45;5.50;99.90
3562;DHT22;1795;52.074;4.754;2023-02-28T12:21:23;5.60;99.90
3562;DHT22;1795;52.074;4.754;2023-02-28T12:24:08;5.60;99.90
3562;DHT22;1795;52.074;4.754;2023-02-28T12:26:43;5.60;99.90
3562;DHT22;1795;52.074;4.754;2023-02-28T12:29:17;5.70;99.90
3562;DHT22;1795;52.074;4.754;2023-02-28T12:31:49;5.70;99.90
3562;DHT22;1795;52.074;4.754;2023-02-28T12:34:20;5.80;99.90
3562;DHT22;1795;52.074;4.754;2023-02-28T12:36:53;5.80;99.90
3562;DHT22;1795;52.074;4.754;2023-02-28T12:39:26;5.90;99.90
3562;DHT22;1795;52.074;4.754;2023-02-28T12:42:07;6.00;99.90
3562;DHT22;1795;52.074;4.754;2023-02-28T12:44:40;6.00;99.90
3562;DHT22;1795;52.074;4.754;2023-02-28T12:47:14;6.10;99.90
3562;DHT22;1795;52.074;4.754;2023-02-28T12:49:46;6.10;99.90
3562;DHT22;1795;52.074;4.754;2023-02-28T12:52:23;6.20;99.90
3562;DHT22;1795;52.074;4.754;2023-02-28T12:54:56;6.20;99.90
3562;DHT22;1795;52.074;4.754;2023-02-28T12:57:34;6.30;99.90
3562;DHT22;1795;52.074;4.754;2023-02-28T13:00:08;6.30;99.90
3562;DHT22;1795;52.074;4.754;2023-02-28T13:06:22;6.40;99.90
3562;DHT22;1795;52.074;4.754;2023-02-28T13:09:09;6.50;99.90
3562;DHT22;1795;52.074;4.754;2023-02-28T13:11:42;6.50;99.90
3562;DHT22;1795;52.074;4.754;2023-02-28T13:14:25;6.60;99.90
3562;DHT22;1795;52.074;4.754;2023-02-28T13:17:01;6.60;99.90
3562;DHT22;1795;52.074;4.754;2023-02-28T13:19:32;6.70;99.90
3562;DHT22;1795;52.074;4.754;2023-02-28T13:22:01;6.70;99.90
3562;DHT22;1795;52.074;4.754;2023-02-28T13:24:40;6.80;99.90
3562;DHT22;1795;52.074;4.754;2023-02-28T13:27:34;6.80;99.90
3562;DHT22;1795;52.074;4.754;2023-02-28T13:33:26;7.00;99.90
3562;DHT22;1795;52.074;4.754;2023-02-28T13:36:22;7.10;99.90
3562;DHT22;1795;52.074;4.754;2023-02-28T13:38:51;7.00;99.90
3562;DHT22;1795;52.074;4.754;2023-02-28T13:41:46;7.00;99.90
3562;DHT22;1795;52.074;4.754;2023-02-28T13:44:16;7.10;99.90
3562;DHT22;1795;52.074;4.754;2023-02-28T13:47:20;7.20;99.90
3562;DHT22;1795;52.074;4.754;2023-02-28T13:49:50;7.20;99.90
3562;DHT22;1795;52.074;4.754;2023-02-28T13:52:21;7.30;99.90
3562;DHT22;1795;52.074;4.754;2023-02-28T13:54:58;7.40;99.90
3562;DHT22;1795;52.074;4.754;2023-02-28T13:57:52;7.40;99.90
3562;DHT22;1795;52.074;4.754;2023-02-28T14:00:31;7.50;99.90
3562;DHT22;1795;52.074;4.754;2023-02-28T14:03:14;7.70;99.90
3562;DHT22;1795;52.074;4.754;2023-02-28T14:05:46;8.00;99.90
3562;DHT22;1795;52.074;4.754;2023-02-28T14:08:19;8.20;99.90
3562;DHT22;1795;52.074;4.754;2023-02-28T14:10:50;8.50;98.70
3562;DHT22;1795;52.074;4.754;2023-02-28T14:13:41;8.70;99.50
3562;DHT22;1795;52.074;4.754;2023-02-28T14:16:13;8.80;98.30
3562;DHT22;1795;52.074;4.754;2023-02-28T14:18:49;8.90;97.20
3562;DHT22;1795;52.074;4.754;2023-02-28T14:21:21;8.90;96.70
3562;DHT22;1795;52.074;4.754;2023-02-28T14:24:24;8.80;97.70
3562;DHT22;1795;52.074;4.754;2023-02-28T14:27:13;8.60;98.10
3562;DHT22;1795;52.074;4.754;2023-02-28T14:30:02;8.50;99.00
3562;DHT22;1795;52.074;4.754;2023-02-28T14:32:35;8.40;99.30
3562;DHT22;1795;52.074;4.754;2023-02-28T14:35:20;8.30;99.70
3562;DHT22;1795;52.074;4.754;2023-02-28T14:37:50;8.30;99.60
3562;DHT22;1795;52.074;4.754;2023-02-28T14:40:22;8.20;99.90
3562;DHT22;1795;52.074;4.754;2023-02-28T14:42:55;8.20;99.80
3562;DHT22;1795;52.074;4.754;2023-02-28T14:45:26;8.10;99.80
3562;DHT22;1795;52.074;4.754;2023-02-28T14:47:57;8.00;99.90
3562;DHT22;1795;52.074;4.754;2023-02-28T14:50:29;7.90;99.90
3562;DHT22;1795;52.074;4.754;2023-02-28T14:52:58;7.90;99.90
3562;DHT22;1795;52.074;4.754;2023-02-28T14:55:28;7.90;99.90
3562;DHT22;1795;52.074;4.754;2023-02-28T14:57:59;7.80;99.90
3562;DHT22;1795;52.074;4.754;2023-02-28T15:00:32;7.90;99.90
3562;DHT22;1795;52.074;4.754;2023-02-28T15:03:13;7.80;99.90
3562;DHT22;1795;52.074;4.754;2023-02-28T15:05:52;7.80;99.90
3562;DHT22;1795;52.074;4.754;2023-02-28T15:08:21;7.70;99.90
3562;DHT22;1795;52.074;4.754;2023-02-28T15:10:54;7.70;99.90
3562;DHT22;1795;52.074;4.754;2023-02-28T15:13:35;7.70;99.90
3562;DHT22;1795;52.074;4.754;2023-02-28T15:16:09;7.60;99.90
3562;DHT22;1795;52.074;4.754;2023-02-28T15:18:44;7.60;99.90
3562;DHT22;1795;52.074;4.754;2023-02-28T15:21:15;7.50;99.90
3562;DHT22;1795;52.074;4.754;2023-02-28T15:23:47;7.60;99.90
3562;DHT22;1795;52.074;4.754;2023-02-28T15:26:19;7.60;99.90
3562;DHT22;1795;52.074;4.754;2023-02-28T15:28:49;7.50;99.90
3562;DHT22;1795;52.074;4.754;2023-02-28T15:31:23;7.60;99.90
3562;DHT22;1795;52.074;4.754;2023-02-28T15:33:55;7.50;99.90
3562;DHT22;1795;52.074;4.754;2023-02-28T15:36:26;7.50;99.90
3562;DHT22;1795;52.074;4.754;2023-02-28T15:38:55;7.40;99.90
3562;DHT22;1795;52.074;4.754;2023-02-28T15:41:41;7.40;99.90
3562;DHT22;1795;52.074;4.754;2023-02-28T15:44:25;7.40;99.90
3562;DHT22;1795;52.074;4.754;2023-02-28T15:47:02;7.40;99.90
3562;DHT22;1795;52.074;4.754;2023-02-28T15:49:38;7.30;99.90
3562;DHT22;1795;52.074;4.754;2023-02-28T15:52:14;7.30;99.90
3562;DHT22;1795;52.074;4.754;2023-02-28T15:54:44;7.30;99.90
3562;DHT22;1795;52.074;4.754;2023-02-28T15:57:15;7.20;99.90
3562;DHT22;1795;52.074;4.754;2023-02-28T15:59:50;7.20;99.90
3562;DHT22;1795;52.074;4.754;2023-02-28T16:02:22;7.10;99.90
3562;DHT22;1795;52.074;4.754;2023-02-28T16:05:12;7.10;99.90
3562;DHT22;1795;52.074;4.754;2023-02-28T16:07:42;7.00;99.90
3562;DHT22;1795;52.074;4.754;2023-02-28T16:10:12;7.00;99.90
3562;DHT22;1795;52.074;4.754;2023-02-28T16:12:41;6.90;99.90
3562;DHT22;1795;52.074;4.754;2023-02-28T16:15:18;6.90;99.90
3562;DHT22;1795;52.074;4.754;2023-02-28T16:17:48;6.90;99.90
3562;DHT22;1795;52.074;4.754;2023-02-28T16:20:19;6.80;99.90
3562;DHT22;1795;52.074;4.754;2023-02-28T16:22:47;6.70;99.90
3562;DHT22;1795;52.074;4.754;2023-02-28T16:25:17;6.70;99.90
3562;DHT22;1795;52.074;4.754;2023-02-28T16:27:48;6.70;99.90
3562;DHT22;1795;52.074;4.754;2023-02-28T16:30:20;6.60;99.90
3562;DHT22;1795;52.074;4.754;2023-02-28T16:32:51;6.60;99.90
3562;DHT22;1795;52.074;4.754;2023-02-28T16:35:20;6.50;99.90
3562;DHT22;1795;52.074;4.754;2023-02-28T16:37:50;6.50;99.90
3562;DHT22;1795;52.074;4.754;2023-02-28T16:40:20;6.50;99.90
3562;DHT22;1795;52.074;4.754;2023-02-28T16:42:52;6.40;99.90
3562;DHT22;1795;52.074;4.754;2023-02-28T16:45:23;6.40;99.90
3562;DHT22;1795;52.074;4.754;2023-02-28T16:47:53;6.30;99.90
3562;DHT22;1795;52.074;4.754;2023-02-28T16:50:23;6.20;99.90
3562;DHT22;1795;52.074;4.754;2023-02-28T16:52:51;6.20;99.90
3562;DHT22;1795;52.074;4.754;2023-02-28T16:55:21;6.10;99.90
3562;DHT22;1795;52.074;4.754;2023-02-28T16:57:51;6.10;99.90
3562;DHT22;1795;52.074;4.754;2023-02-28T17:00:21;6.00;99.90
3562;DHT22;1795;52.074;4.754;2023-02-28T17:02:59;6.00;99.90
3562;DHT22;1795;52.074;4.754;2023-02-28T17:05:34;5.90;99.90
3562;DHT22;1795;52.074;4.754;2023-02-28T17:08:04;5.80;99.90
3562;DHT22;1795;52.074;4.754;2023-02-28T17:10:32;5.70;99.90